Time;durP1;ratioP1;P1;durP2;ratioP2;P2;SDS_P1;SDS_P2;PMS_P1;PMS_P2;Temp;Humidity;BMP_temperature;BMP_pressure;BME280_temperature;BME280_humidity;BME280_pressure;Samples;Min_cycle;Max_cycle;Signal;HPM_P1;HPM_P2
2023/05/28 00:00:00;;;;;;;2.05;1.42;;;19.60;43.80;;;;;;5058604;28;20256;-81
2023/05/28 00:02:26;;;;;;;1.30;1.20;;;19.60;43.80;;;;;;5075491;28;20158;-81
2023/05/28 00:04:53;;;;;;;1.40;1.20;;;19.60;43.80;;;;;;5075153;28;20183;-81
2023/05/28 00:07:21;;;;;;;1.35;1.20;;;19.60;43.80;;;;;;5058739;28;20205;-81
2023/05/28 00:09:48;;;;;;;1.35;1.13;;;19.60;43.70;;;;;;5076365;28;20154;-81
2023/05/28 00:12:14;;;;;;;1.50;1.40;;;19.60;43.70;;;;;;5076032;28;20651;-81
2023/05/28 00:14:40;;;;;;;1.55;1.38;;;19.60;43.70;;;;;;5058290;28;20179;-82
2023/05/28 00:17:06;;;;;;;1.52;1.25;;;19.60;43.70;;;;;;5076044;28;20158;-81
2023/05/28 00:19:32;;;;;;;1.40;1.30;;;19.60;43.70;;;;;;5074612;28;20169;-81
2023/05/28 00:21:58;;;;;;;1.67;1.25;;;19.60;43.70;;;;;;5074939;28;20219;-81
2023/05/28 00:24:23;;;;;;;2.05;1.50;;;19.60;43.70;;;;;;5057556;28;20169;-81
2023/05/28 00:26:49;;;;;;;1.65;1.40;;;19.60;43.70;;;;;;5062958;28;20208;-81
2023/05/28 00:29:15;;;;;;;1.83;1.30;;;19.60;43.70;;;;;;5094748;28;20157;-81
2023/05/28 00:31:40;;;;;;;1.42;1.20;;;19.60;43.70;;;;;;5077831;28;20203;-81
2023/05/28 00:34:07;;;;;;;2.92;1.50;;;19.60;43.70;;;;;;5078345;28;20579;-81
2023/05/28 00:36:33;;;;;;;1.35;1.23;;;19.60;43.70;;;;;;5096054;28;20156;-81
2023/05/28 00:38:59;;;;;;;1.70;1.30;;;19.60;43.70;;;;;;5093698;28;20603;-81
2023/05/28 00:41:26;;;;;;;2.00;1.30;;;19.60;43.70;;;;;;5078020;28;20218;-82
2023/05/28 00:43:52;;;;;;;1.55;1.40;;;19.60;43.70;;;;;;5077497;28;20673;-81
2023/05/28 00:46:20;;;;;;;1.42;1.15;;;19.60;43.70;;;;;;5094579;28;20172;-81
2023/05/28 00:48:46;;;;;;;2.33;1.02;;;19.60;43.70;;;;;;5094627;28;20199;-81
2023/05/28 00:51:12;;;;;;;1.38;1.20;;;19.60;43.70;;;;;;5077547;28;20203;-81
2023/05/28 00:53:38;;;;;;;1.95;1.58;;;19.60;43.70;;;;;;5077391;28;20164;-81
2023/05/28 00:56:04;;;;;;;1.40;1.23;;;19.60;43.70;;;;;;5095690;28;20164;-81
2023/05/28 00:58:31;;;;;;;1.13;1.02;;;19.60;43.70;;;;;;5077248;28;20179;-81
2023/05/28 01:00:56;;;;;;;1.25;1.15;;;19.60;43.70;;;;;;5095401;28;20210;-81
2023/05/28 01:03:22;;;;;;;1.52;1.23;;;19.60;43.70;;;;;;5094346;28;20188;-81
2023/05/28 01:05:48;;;;;;;1.88;1.08;;;19.60;43.70;;;;;;5094196;28;20525;-81
2023/05/28 01:08:14;;;;;;;1.52;1.17;;;19.60;43.70;;;;;;5094195;28;20553;-81
2023/05/28 01:10:40;;;;;;;1.35;1.05;;;19.60;43.80;;;;;;5093877;28;20236;-81
2023/05/28 01:13:06;;;;;;;1.65;1.10;;;19.60;43.70;;;;;;5094022;28;20630;-81
2023/05/28 01:15:32;;;;;;;1.40;1.10;;;19.60;43.70;;;;;;5076928;28;20169;-81
2023/05/28 01:17:59;;;;;;;1.20;1.10;;;19.60;43.80;;;;;;5093844;28;20188;-81
2023/05/28 01:20:27;;;;;;;1.60;1.13;;;19.60;43.80;;;;;;5093938;28;20153;-81
2023/05/28 01:23:03;;;;;;;1.40;1.23;;;19.60;43.80;;;;;;5093691;28;20519;-81
2023/05/28 01:25:29;;;;;;;1.85;1.27;;;19.60;43.80;;;;;;5095150;28;20187;-81
2023/05/28 01:27:55;;;;;;;1.17;1.08;;;19.60;43.80;;;;;;5079286;28;20244;-81
2023/05/28 01:30:21;;;;;;;1.83;1.30;;;19.60;43.80;;;;;;5056567;28;20179;-81
2023/05/28 01:32:46;;;;;;;1.80;1.35;;;19.50;43.70;;;;;;5074829;28;20212;-81
2023/05/28 01:35:12;;;;;;;1.60;1.25;;;19.60;43.80;;;;;;5074864;28;20631;-80
2023/05/28 01:37:40;;;;;;;1.20;1.10;;;19.60;43.80;;;;;;5073615;28;20172;-80
2023/05/28 01:40:07;;;;;;;1.70;1.25;;;19.60;43.80;;;;;;5073625;28;20158;-81
2023/05/28 01:42:34;;;;;;;1.90;1.10;;;19.60;43.80;;;;;;5040714;28;20256;-81
2023/05/28 01:44:59;;;;;;;1.65;1.17;;;19.60;43.90;;;;;;5056684;28;20154;-81
2023/05/28 01:47:25;;;;;;;1.60;1.30;;;19.60;43.90;;;;;;5073212;28;20157;-80
2023/05/28 01:49:52;;;;;;;1.20;1.10;;;19.50;43.80;;;;;;5072847;28;20659;-81
2023/05/28 01:52:18;;;;;;;1.20;1.10;;;19.60;43.90;;;;;;5072926;28;20192;-81
2023/05/28 01:54:45;;;;;;;1.20;1.10;;;19.60;43.80;;;;;;5074778;28;20229;-81
2023/05/28 01:57:11;;;;;;;1.63;1.42;;;19.60;43.90;;;;;;5073028;28;20149;-80
2023/05/28 01:59:37;;;;;;;1.75;1.60;;;19.60;43.90;;;;;;5056824;28;20596;-80
2023/05/28 02:02:05;;;;;;;1.40;1.10;;;19.50;43.90;;;;;;5074548;28;20180;-81
2023/05/28 02:04:30;;;;;;;1.52;1.30;;;19.60;43.90;;;;;;5039829;28;20524;-81
2023/05/28 02:06:56;;;;;;;1.50;1.30;;;19.50;43.80;;;;;;5072948;28;20210;-81
2023/05/28 02:09:22;;;;;;;1.95;1.45;;;19.60;43.90;;;;;;5056135;28;20172;-80
2023/05/28 02:11:47;;;;;;;1.63;1.30;;;19.60;43.90;;;;;;5073028;28;20193;-80
2023/05/28 02:14:14;;;;;;;1.58;1.40;;;19.50;43.80;;;;;;5056775;28;20197;-81
2023/05/28 02:16:42;;;;;;;1.40;1.30;;;19.60;43.90;;;;;;5074037;28;20158;-81
2023/05/28 02:19:09;;;;;;;1.35;1.20;;;19.50;43.90;;;;;;5056465;28;20203;-83
2023/05/28 02:21:36;;;;;;;1.73;1.40;;;19.60;43.90;;;;;;5058204;28;20154;-81
2023/05/28 02:24:01;;;;;;;2.00;1.30;;;19.60;43.90;;;;;;5076812;28;20192;-81
2023/05/28 02:26:27;;;;;;;1.30;1.15;;;19.50;43.80;;;;;;5063621;28;20668;-81
2023/05/28 02:28:53;;;;;;;1.40;1.25;;;19.50;43.80;;;;;;5083268;28;20638;-81
2023/05/28 02:31:19;;;;;;;1.30;1.20;;;19.50;43.90;;;;;;5099736;28;20192;-81
2023/05/28 02:33:45;;;;;;;2.38;1.60;;;19.50;43.90;;;;;;5099903;28;20230;-81
2023/05/28 02:36:12;;;;;;;1.95;1.10;;;19.50;43.90;;;;;;5100147;28;20167;-81
2023/05/28 02:38:38;;;;;;;1.35;1.10;;;19.50;43.90;;;;;;5100322;28;20156;-82
2023/05/28 02:41:07;;;;;;;1.80;1.30;;;19.50;43.90;;;;;;5083553;28;20196;-81
2023/05/28 02:43:32;;;;;;;2.75;1.30;;;19.50;43.90;;;;;;5118417;28;20237;-81
2023/05/28 02:45:58;;;;;;;1.55;1.17;;;19.50;43.90;;;;;;5099795;28;20156;-81
2023/05/28 02:48:24;;;;;;;1.65;1.30;;;19.50;44.00;;;;;;5099589;28;20155;-81
2023/05/28 02:50:51;;;;;;;1.73;1.40;;;19.50;43.90;;;;;;5083588;28;20164;-81
2023/05/28 02:53:20;;;;;;;1.88;1.50;;;19.50;43.90;;;;;;5117934;28;20156;-80
2023/05/28 02:55:45;;;;;;;1.40;1.15;;;19.50;43.90;;;;;;5099946;28;20178;-81
2023/05/28 02:58:12;;;;;;;1.40;1.30;;;19.50;43.90;;;;;;5099998;28;20156;-81
2023/05/28 03:00:38;;;;;;;1.67;1.30;;;19.50;44.00;;;;;;5118186;28;20179;-81
2023/05/28 03:03:04;;;;;;;1.42;1.25;;;19.50;43.90;;;;;;5102551;28;20156;-81
2023/05/28 03:05:31;;;;;;;1.00;1.00;;;19.50;43.90;;;;;;5103328;28;20626;-81
2023/05/28 03:07:58;;;;;;;1.75;1.45;;;19.50;43.90;;;;;;5103194;28;20239;-81
2023/05/28 03:10:24;;;;;;;1.60;1.38;;;19.50;44.00;;;;;;5103325;28;20158;-80
2023/05/28 03:12:49;;;;;;;1.63;1.30;;;19.50;44.00;;;;;;5103559;28;20284;-81
2023/05/28 03:15:15;;;;;;;1.45;1.33;;;19.50;44.00;;;;;;5086558;28;20160;-81
2023/05/28 03:17:41;;;;;;;1.90;1.40;;;19.50;43.90;;;;;;5121917;28;20148;-81
2023/05/28 03:20:10;;;;;;;1.30;1.20;;;19.50;44.00;;;;;;5103185;28;20149;-81
2023/05/28 03:22:36;;;;;;;1.48;1.20;;;19.50;44.00;;;;;;5121817;28;20148;-81
2023/05/28 03:25:03;;;;;;;1.50;1.40;;;19.50;44.00;;;;;;5086525;28;20168;-81
2023/05/28 03:27:29;;;;;;;1.77;1.30;;;19.50;44.00;;;;;;5088209;28;20233;-81
2023/05/28 03:29:55;;;;;;;2.05;1.35;;;19.50;44.00;;;;;;5060955;28;20180;-80
2023/05/28 03:32:20;;;;;;;1.65;1.38;;;19.50;44.00;;;;;;5077270;28;20382;-80
2023/05/28 03:34:48;;;;;;;2.20;1.55;;;19.50;44.00;;;;;;5075521;28;20169;-81
2023/05/28 03:37:14;;;;;;;1.55;1.38;;;19.50;44.00;;;;;;5075697;28;20246;-81
2023/05/28 03:39:39;;;;;;;1.40;1.25;;;19.50;44.00;;;;;;5077076;28;20611;-81
2023/05/28 03:42:07;;;;;;;1.70;1.50;;;19.50;44.00;;;;;;5058665;28;20165;-80
2023/05/28 03:44:34;;;;;;;2.10;1.40;;;19.40;44.00;;;;;;5076692;28;20181;-80
2023/05/28 03:47:00;;;;;;;2.20;1.40;;;19.40;44.00;;;;;;5075310;28;20553;-81
2023/05/28 03:49:26;;;;;;;1.23;1.13;;;19.50;44.10;;;;;;5075274;28;20184;-81
2023/05/28 03:51:52;;;;;;;1.50;1.30;;;19.50;44.00;;;;;;5075561;28;20607;-80
2023/05/28 03:54:17;;;;;;;1.27;1.17;;;19.50;44.00;;;;;;5058691;28;20158;-80
2023/05/28 03:56:43;;;;;;;1.60;1.40;;;19.50;44.00;;;;;;5076283;28;20167;-81
2023/05/28 03:59:09;;;;;;;1.02;0.93;;;19.50;44.00;;;;;;5075145;28;20181;-80
2023/05/28 04:01:36;;;;;;;1.13;1.02;;;19.50;44.00;;;;;;5075000;28;20536;-80
2023/05/28 04:04:02;;;;;;;2.13;1.40;;;19.50;44.00;;;;;;5075266;28;20156;-81
2023/05/28 04:06:28;;;;;;;1.83;1.20;;;19.50;44.00;;;;;;5058366;28;20185;-80
2023/05/28 04:08:55;;;;;;;1.90;1.58;;;19.50;44.10;;;;;;5058323;28;20210;-81
2023/05/28 04:11:24;;;;;;;3.05;1.60;;;19.50;44.10;;;;;;5075001;28;20192;-80
2023/05/28 04:13:51;;;;;;;1.70;1.40;;;19.50;44.10;;;;;;5058739;28;20162;-80
2023/05/28 04:16:17;;;;;;;1.50;1.38;;;19.50;44.10;;;;;;5058142;28;20643;-81
2023/05/28 04:18:42;;;;;;;1.75;1.42;;;19.50;44.10;;;;;;5076534;28;20162;-80
2023/05/28 04:21:08;;;;;;;1.63;1.27;;;19.50;44.10;;;;;;5074778;28;20177;-80
2023/05/28 04:23:34;;;;;;;1.67;1.40;;;19.40;44.10;;;;;;5074605;28;20154;-80
2023/05/28 04:25:59;;;;;;;1.85;1.50;;;19.50;44.10;;;;;;5075828;28;20153;-81
2023/05/28 04:28:27;;;;;;;1.40;1.30;;;19.50;44.10;;;;;;5072805;28;20205;-81
2023/05/28 04:30:54;;;;;;;2.10;1.48;;;19.50;44.10;;;;;;5058161;28;20176;-80
2023/05/28 04:33:20;;;;;;;1.50;1.25;;;19.50;44.10;;;;;;5057944;28;20169;-81
2023/05/28 04:35:47;;;;;;;1.30;1.20;;;19.50;44.10;;;;;;5075687;28;20612;-80
2023/05/28 04:38:12;;;;;;;3.40;1.40;;;19.50;44.10;;;;;;5074720;28;20248;-81
2023/05/28 04:40:39;;;;;;;2.05;1.55;;;19.50;44.10;;;;;;5075407;28;20241;-81
2023/05/28 04:43:06;;;;;;;1.45;1.20;;;19.40;44.10;;;;;;5074184;28;20237;-81
2023/05/28 04:45:32;;;;;;;1.88;1.42;;;19.50;44.10;;;;;;5074209;28;20681;-80
2023/05/28 04:47:58;;;;;;;1.30;1.20;;;19.50;44.20;;;;;;5062599;28;20204;-82
2023/05/28 04:50:24;;;;;;;1.65;1.38;;;19.50;44.10;;;;;;5094226;28;20263;-82
2023/05/28 04:52:51;;;;;;;1.95;1.40;;;19.40;44.10;;;;;;5099058;28;20220;-82
2023/05/28 04:55:16;;;;;;;1.30;1.20;;;19.40;44.10;;;;;;5096777;28;20176;-82
2023/05/28 04:57:43;;;;;;;1.98;1.35;;;19.50;44.10;;;;;;5097964;28;20247;-82
2023/05/28 05:00:13;;;;;;;2.25;1.25;;;19.50;44.10;;;;;;5078132;28;20186;-82
2023/05/28 05:02:43;;;;;;;1.63;1.30;;;19.50;44.10;;;;;;5084608;28;20172;-82
2023/05/28 05:05:08;;;;;;;1.50;1.40;;;19.50;44.10;;;;;;5091450;28;20153;-82
2023/05/28 05:07:36;;;;;;;1.25;1.15;;;19.50;44.20;;;;;;5096786;28;20156;-82
2023/05/28 05:10:05;;;;;;;1.67;1.42;;;19.50;44.20;;;;;;5096636;28;20698;-82
2023/05/28 05:12:31;;;;;;;1.73;1.40;;;19.40;44.20;;;;;;5113829;28;20196;-82
2023/05/28 05:14:58;;;;;;;1.48;1.35;;;19.50;44.20;;;;;;5096764;28;20165;-82
2023/05/28 05:17:23;;;;;;;1.70;1.33;;;19.40;44.20;;;;;;5113627;28;20218;-82
2023/05/28 05:19:49;;;;;;;1.45;1.33;;;19.40;44.10;;;;;;5097393;28;20184;-82
2023/05/28 05:22:15;;;;;;;2.25;1.40;;;19.40;44.10;;;;;;5096627;28;20499;-82
2023/05/28 05:24:40;;;;;;;2.28;1.67;;;19.40;44.10;;;;;;5096533;28;20226;-82
2023/05/28 05:27:06;;;;;;;1.52;1.33;;;19.40;44.10;;;;;;5112549;27;20207;-82
2023/05/28 05:29:32;;;;;;;1.60;1.50;;;19.40;44.10;;;;;;5102904;27;20702;-81
2023/05/28 05:31:58;;;;;;;1.52;1.33;;;19.40;44.20;;;;;;5120167;27;20183;-82
2023/05/28 05:34:24;;;;;;;2.08;1.42;;;19.40;44.20;;;;;;5139140;27;20521;-82
2023/05/28 05:36:49;;;;;;;1.17;1.08;;;19.40;44.20;;;;;;5116665;28;20168;-81
2023/05/28 05:39:15;;;;;;;1.48;1.38;;;19.40;44.20;;;;;;5117838;28;20640;-82
2023/05/28 05:41:41;;;;;;;1.52;1.42;;;19.40;44.30;;;;;;5099306;28;20191;-82
2023/05/28 05:44:06;;;;;;;1.52;1.40;;;19.30;44.20;;;;;;5099760;28;20175;-82
2023/05/28 05:46:32;;;;;;;1.10;1.00;;;19.40;44.30;;;;;;5118445;28;20674;-82
2023/05/28 05:48:59;;;;;;;1.42;1.20;;;19.40;44.30;;;;;;5137072;27;20611;-82
2023/05/28 05:51:24;;;;;;;1.48;1.38;;;19.40;44.30;;;;;;5120069;27;20202;-82
2023/05/28 05:53:50;;;;;;;1.52;1.42;;;19.40;44.30;;;;;;5119448;27;20544;-82
2023/05/28 05:56:17;;;;;;;1.65;1.40;;;19.40;44.30;;;;;;5101652;27;20171;-82
2023/05/28 05:58:43;;;;;;;1.75;1.30;;;19.40;44.30;;;;;;5118653;28;20144;-82
2023/05/28 06:01:09;;;;;;;1.75;1.30;;;19.40;44.20;;;;;;5118971;28;20159;-83
2023/05/28 06:03:36;;;;;;;2.13;1.50;;;19.50;44.30;;;;;;5119744;27;20216;-82
2023/05/28 06:06:02;;;;;;;1.70;1.50;;;19.40;44.20;;;;;;5118275;27;20155;-83
2023/05/28 06:08:28;;;;;;;1.75;1.50;;;19.50;44.40;;;;;;5138500;27;20152;-82
2023/05/28 06:10:54;;;;;;;2.00;1.42;;;19.50;45.00;;;;;;5122882;28;20159;-82
2023/05/28 06:13:21;;;;;;;1.33;1.10;;;19.40;45.00;;;;;;5123062;28;20214;-82
2023/05/28 06:15:47;;;;;;;1.70;1.30;;;19.40;44.40;;;;;;5124157;28;20164;-82
2023/05/28 06:18:14;;;;;;;1.55;1.45;;;19.40;44.30;;;;;;5123728;28;20175;-82
2023/05/28 06:20:42;;;;;;;1.50;1.40;;;19.40;44.40;;;;;;5124753;28;20171;-82
2023/05/28 06:23:07;;;;;;;2.15;1.40;;;19.40;44.30;;;;;;5108720;28;20167;-82
2023/05/28 06:25:35;;;;;;;1.75;1.33;;;19.50;44.40;;;;;;5126179;28;20185;-82
2023/05/28 06:28:01;;;;;;;2.10;1.38;;;19.50;44.30;;;;;;5088119;28;20220;-82
2023/05/28 06:30:27;;;;;;;2.28;1.40;;;19.40;44.30;;;;;;5084562;28;20176;-82
2023/05/28 06:32:52;;;;;;;2.35;1.58;;;19.40;44.40;;;;;;5085062;28;20215;-82
2023/05/28 06:35:21;;;;;;;2.05;1.33;;;19.40;44.40;;;;;;5102963;28;20626;-82
2023/05/28 06:37:47;;;;;;;1.63;1.33;;;19.40;44.40;;;;;;5106101;28;20149;-82
2023/05/28 06:40:12;;;;;;;1.88;1.50;;;19.40;44.40;;;;;;5089318;28;20200;-82
2023/05/28 06:42:39;;;;;;;1.55;1.45;;;19.40;44.40;;;;;;5107323;28;20161;-82
2023/05/28 06:45:05;;;;;;;1.40;1.23;;;19.40;44.40;;;;;;5107830;28;20207;-82
2023/05/28 06:47:31;;;;;;;1.65;1.52;;;19.40;44.30;;;;;;5108302;28;20166;-82
2023/05/28 06:49:57;;;;;;;1.75;1.40;;;19.40;45.00;;;;;;5107853;28;20153;-82
2023/05/28 06:52:23;;;;;;;1.67;1.50;;;19.40;44.30;;;;;;5091314;28;20252;-82
2023/05/28 06:54:49;;;;;;;1.70;1.50;;;19.40;44.30;;;;;;5091718;28;20164;-82
2023/05/28 06:57:15;;;;;;;2.10;1.70;;;19.40;44.30;;;;;;5090425;28;20157;-82
2023/05/28 06:59:41;;;;;;;1.50;1.40;;;19.40;44.30;;;;;;5090437;28;20160;-82
2023/05/28 07:02:06;;;;;;;1.90;1.35;;;19.40;44.30;;;;;;5108160;28;20165;-82
2023/05/28 07:04:32;;;;;;;1.60;1.50;;;19.30;44.20;;;;;;5106265;28;20157;-82
2023/05/28 07:06:58;;;;;;;1.90;1.50;;;19.40;44.30;;;;;;5089804;28;20169;-82
2023/05/28 07:09:23;;;;;;;1.60;1.50;;;19.40;44.40;;;;;;5089398;28;20164;-82
2023/05/28 07:11:49;;;;;;;1.85;1.40;;;19.40;44.30;;;;;;5087467;28;20550;-82
2023/05/28 07:14:15;;;;;;;1.80;1.40;;;19.40;44.30;;;;;;5105644;28;20141;-82
2023/05/28 07:16:44;;;;;;;1.50;1.33;;;19.40;44.30;;;;;;5105616;28;20165;-82
2023/05/28 07:19:11;;;;;;;1.40;1.30;;;19.40;44.40;;;;;;5105178;28;20194;-83
2023/05/28 07:21:39;;;;;;;1.98;1.33;;;19.50;44.40;;;;;;5104916;28;20153;-82
2023/05/28 07:24:12;;;;;;;1.60;1.42;;;19.40;44.30;;;;;;5105914;28;20227;-82
2023/05/28 07:26:38;;;;;;;1.75;1.25;;;19.40;44.30;;;;;;5086975;28;20229;-82
2023/05/28 07:29:04;;;;;;;1.42;1.20;;;19.40;44.30;;;;;;5118315;28;20208;-82
2023/05/28 07:31:31;;;;;;;1.60;1.35;;;19.50;44.40;;;;;;5118937;28;20193;-83
2023/05/28 07:33:57;;;;;;;2.53;1.50;;;19.40;44.30;;;;;;5119140;27;20530;-82
2023/05/28 07:36:22;;;;;;;1.63;1.52;;;19.40;44.30;;;;;;5118748;28;20156;-82
2023/05/28 07:38:48;;;;;;;1.40;1.23;;;19.40;44.40;;;;;;5117322;28;20163;-83
2023/05/28 07:41:14;;;;;;;3.28;1.70;;;19.40;44.40;;;;;;5118549;28;20201;-82
2023/05/28 07:43:40;;;;;;;1.70;1.40;;;19.50;44.40;;;;;;5117452;28;20199;-82
2023/05/28 07:46:05;;;;;;;1.60;1.33;;;19.40;44.50;;;;;;5117569;28;20164;-82
2023/05/28 07:48:31;;;;;;;2.30;1.80;;;19.50;44.90;;;;;;5116546;28;20494;-82
2023/05/28 07:51:00;;;;;;;2.15;1.65;;;19.60;44.90;;;;;;5117006;28;20179;-82
2023/05/28 07:53:26;;;;;;;1.63;1.30;;;19.60;45.10;;;;;;5116703;28;20172;-82
2023/05/28 07:55:53;;;;;;;1.55;1.25;;;19.60;45.50;;;;;;5117332;28;20524;-83
2023/05/28 07:58:18;;;;;;;2.22;1.40;;;19.60;45.20;;;;;;5117088;28;20176;-83
2023/05/28 08:00:44;;;;;;;2.65;1.40;;;19.60;45.50;;;;;;5117426;28;20592;-82
2023/05/28 08:03:11;;;;;;;1.60;1.40;;;19.60;45.40;;;;;;5117511;28;20172;-82
2023/05/28 08:05:37;;;;;;;2.03;1.60;;;19.60;45.50;;;;;;5117350;28;20614;-82
2023/05/28 08:08:02;;;;;;;1.60;1.50;;;19.60;45.80;;;;;;5116688;28;20156;-82
2023/05/28 08:10:28;;;;;;;2.17;1.40;;;19.60;45.80;;;;;;5099471;28;20609;-83
2023/05/28 08:12:55;;;;;;;1.60;1.50;;;19.50;46.10;;;;;;5116982;28;20183;-82
2023/05/28 08:15:21;;;;;;;1.83;1.40;;;19.50;46.00;;;;;;5118352;28;20176;-82
2023/05/28 08:17:46;;;;;;;1.67;1.45;;;19.50;46.10;;;;;;5118663;28;20156;-83
2023/05/28 08:20:12;;;;;;;2.83;1.50;;;19.50;46.20;;;;;;5117404;28;20164;-82
2023/05/28 08:22:42;;;;;;;1.50;1.30;;;19.50;46.40;;;;;;5118829;28;20159;-82
2023/05/28 08:25:09;;;;;;;1.83;1.50;;;19.50;46.60;;;;;;5117392;28;20168;-82
2023/05/28 08:27:36;;;;;;;2.30;1.38;;;19.60;46.40;;;;;;5112356;28;20215;-82
2023/05/28 08:30:01;;;;;;;1.85;1.48;;;19.50;46.30;;;;;;5097878;28;20190;-82
2023/05/28 08:32:27;;;;;;;1.95;1.50;;;19.50;46.50;;;;;;5098310;28;20188;-82
2023/05/28 08:34:53;;;;;;;2.80;1.40;;;19.50;46.50;;;;;;5098278;28;20207;-82
2023/05/28 08:37:18;;;;;;;1.90;1.60;;;19.50;46.90;;;;;;5097006;28;20499;-83
2023/05/28 08:39:44;;;;;;;1.88;1.65;;;19.50;46.70;;;;;;5098031;28;20521;-82
2023/05/28 08:42:10;;;;;;;1.80;1.60;;;19.60;46.90;;;;;;5098761;28;20572;-82
2023/05/28 08:44:35;;;;;;;1.95;1.60;;;19.50;46.60;;;;;;5094190;28;20634;-82
2023/05/28 08:47:01;;;;;;;2.22;1.70;;;19.50;46.90;;;;;;5094265;28;20164;-83
2023/05/28 08:49:32;;;;;;;2.00;1.63;;;19.60;46.60;;;;;;5097377;28;20238;-82
2023/05/28 08:52:02;;;;;;;1.52;1.42;;;19.60;46.60;;;;;;5075934;28;20185;-82
2023/05/28 08:54:28;;;;;;;2.22;1.70;;;19.60;46.90;;;;;;5080981;28;20185;-82
2023/05/28 08:56:54;;;;;;;1.63;1.52;;;19.60;47.10;;;;;;5097218;28;20172;-82
2023/05/28 08:59:20;;;;;;;2.85;1.52;;;19.60;46.90;;;;;;5096084;28;20145;-82
2023/05/28 09:01:46;;;;;;;2.22;1.80;;;19.60;47.10;;;;;;5076857;28;20240;-82
2023/05/28 09:04:11;;;;;;;1.35;1.25;;;19.60;46.90;;;;;;5076600;28;20157;-83
2023/05/28 09:06:38;;;;;;;1.73;1.52;;;19.60;46.80;;;;;;5077082;28;20211;-82
2023/05/28 09:09:04;;;;;;;3.13;1.80;;;19.60;47.00;;;;;;5092321;28;20172;-83
2023/05/28 09:11:29;;;;;;;1.85;1.70;;;19.60;47.00;;;;;;5097263;28;20192;-82
2023/05/28 09:13:55;;;;;;;2.78;1.63;;;19.70;47.20;;;;;;5093260;28;20193;-82
2023/05/28 09:16:21;;;;;;;2.20;1.50;;;19.80;46.90;;;;;;5077085;28;20181;-81
2023/05/28 09:18:49;;;;;;;1.88;1.65;;;19.70;47.00;;;;;;5096515;28;20184;-82
2023/05/28 09:21:15;;;;;;;2.35;1.60;;;19.70;46.70;;;;;;5098768;28;20153;-82
2023/05/28 09:23:41;;;;;;;2.75;1.70;;;19.70;46.90;;;;;;5093761;28;20191;-82
2023/05/28 09:26:09;;;;;;;1.70;1.38;;;19.70;46.90;;;;;;5059927;28;20185;-82
2023/05/28 09:28:39;;;;;;;1.58;1.38;;;19.80;46.80;;;;;;5090095;28;20219;-82
2023/05/28 09:31:05;;;;;;;2.53;1.70;;;19.80;46.80;;;;;;5097063;28;20179;-82
2023/05/28 09:33:32;;;;;;;1.60;1.50;;;19.90;46.70;;;;;;5093520;28;20160;-82
2023/05/28 09:36:00;;;;;;;2.25;1.50;;;19.80;46.90;;;;;;5076633;28;20666;-83
2023/05/28 09:38:26;;;;;;;1.60;1.38;;;19.80;46.90;;;;;;5067079;28;20165;-82
2023/05/28 09:40:54;;;;;;;2.50;1.40;;;19.90;46.90;;;;;;5091568;28;20650;-82
2023/05/28 09:43:29;;;;;;;3.03;1.50;;;19.80;46.90;;;;;;5096681;28;20191;-83
2023/05/28 09:46:07;;;;;;;1.92;1.38;;;19.90;46.90;;;;;;5082070;28;20229;-82
2023/05/28 09:48:33;;;;;;;2.10;1.55;;;19.90;46.90;;;;;;5097055;28;20167;-82
2023/05/28 09:51:00;;;;;;;1.77;1.27;;;19.90;46.90;;;;;;5079799;28;20164;-83
2023/05/28 09:53:28;;;;;;;2.58;1.50;;;19.90;47.10;;;;;;5096033;28;20181;-82
2023/05/28 09:55:54;;;;;;;2.08;1.50;;;19.90;47.10;;;;;;5094142;28;20171;-83
2023/05/28 09:58:21;;;;;;;1.70;1.50;;;19.90;47.10;;;;;;5094109;28;20188;-82
2023/05/28 10:00:52;;;;;;;2.08;1.55;;;19.80;47.20;;;;;;5097300;28;20161;-82
2023/05/28 10:03:28;;;;;;;2.80;1.80;;;19.70;47.30;;;;;;5095577;28;20160;-82
2023/05/28 10:05:59;;;;;;;2.60;1.48;;;19.80;47.40;;;;;;5095598;28;20202;-83
2023/05/28 10:08:25;;;;;;;1.67;1.48;;;19.70;47.40;;;;;;5095450;28;20579;-82
2023/05/28 10:10:53;;;;;;;1.80;1.60;;;19.80;47.50;;;;;;5095593;28;20172;-82
2023/05/28 10:13:18;;;;;;;2.92;1.60;;;19.70;47.50;;;;;;5096097;28;20233;-83
2023/05/28 10:15:45;;;;;;;2.25;1.60;;;19.70;47.60;;;;;;5096769;28;20148;-82
2023/05/28 10:18:11;;;;;;;2.22;1.58;;;19.70;47.60;;;;;;5096403;28;20149;-82
2023/05/28 10:20:37;;;;;;;2.05;1.60;;;19.70;47.60;;;;;;5095021;28;20149;-83
2023/05/28 10:23:03;;;;;;;3.40;1.60;;;19.70;47.60;;;;;;5096238;28;20164;-82
2023/05/28 10:25:30;;;;;;;2.03;1.50;;;19.70;47.60;;;;;;5078572;28;20168;-83
2023/05/28 10:27:58;;;;;;;1.70;1.50;;;19.70;47.60;;;;;;5095127;28;20307;-82
2023/05/28 10:30:38;;;;;;;1.90;1.50;;;19.70;47.60;;;;;;5095344;28;20228;-82
2023/05/28 10:33:05;;;;;;;1.60;1.42;;;19.70;47.70;;;;;;5095758;28;20663;-82
2023/05/28 10:35:34;;;;;;;2.28;1.33;;;19.70;47.70;;;;;;5094617;28;20161;-82
2023/05/28 10:38:05;;;;;;;1.77;1.52;;;19.70;47.80;;;;;;5077745;28;20195;-82
2023/05/28 10:40:33;;;;;;;1.48;1.23;;;19.70;47.80;;;;;;5090544;28;20158;-82
2023/05/28 10:42:59;;;;;;;3.38;1.80;;;19.70;48.40;;;;;;5076490;28;20225;-82
2023/05/28 10:45:40;;;;;;;2.33;1.25;;;19.70;47.80;;;;;;5058183;28;20170;-82
2023/05/28 10:48:07;;;;;;;2.10;1.48;;;19.70;47.80;;;;;;5074746;28;20263;-82
2023/05/28 10:50:33;;;;;;;1.08;0.95;;;19.70;47.80;;;;;;5074924;28;20502;-83
2023/05/28 10:53:07;;;;;;;1.38;1.20;;;19.70;47.80;;;;;;5075338;28;20317;-82
2023/05/28 10:55:53;;;;;;;1.33;1.15;;;19.80;47.80;;;;;;5089085;28;20169;-82
2023/05/28 10:58:35;;;;;;;1.83;1.42;;;19.70;47.70;;;;;;5075053;28;20161;-83
2023/05/28 11:01:20;;;;;;;1.52;1.40;;;19.70;47.70;;;;;;5075050;28;20150;-82
2023/05/28 11:03:52;;;;;;;1.83;1.45;;;19.70;47.70;;;;;;5077374;28;20616;-83
2023/05/28 11:06:18;;;;;;;3.35;1.40;;;19.70;47.60;;;;;;5058359;28;20174;-82
2023/05/28 11:08:45;;;;;;;1.38;1.27;;;19.80;48.30;;;;;;5084910;28;20210;-83
2023/05/28 11:11:12;;;;;;;1.42;1.23;;;19.80;47.60;;;;;;5077410;28;20188;-82
2023/05/28 11:13:42;;;;;;;2.33;1.20;;;19.70;47.50;;;;;;5094748;28;20153;-82
2023/05/28 11:16:09;;;;;;;1.95;1.20;;;19.80;47.60;;;;;;5076872;28;20165;-82
2023/05/28 11:18:35;;;;;;;2.55;1.30;;;19.80;47.60;;;;;;5091755;28;20162;-82
2023/05/28 11:21:04;;;;;;;3.15;1.38;;;19.80;47.40;;;;;;5058061;28;20172;-82
2023/05/28 11:23:30;;;;;;;2.58;1.48;;;19.80;47.30;;;;;;5076519;28;20157;-82
2023/05/28 11:25:56;;;;;;;1.30;1.20;;;19.80;47.40;;;;;;5084855;28;20165;-82
2023/05/28 11:28:22;;;;;;;1.50;1.35;;;19.80;47.30;;;;;;5110116;28;20689;-82
2023/05/28 11:30:51;;;;;;;1.30;1.20;;;19.70;47.30;;;;;;5119438;28;20260;-82
2023/05/28 11:33:17;;;;;;;1.95;1.40;;;19.80;47.40;;;;;;5115640;28;20267;-83
2023/05/28 11:35:42;;;;;;;1.55;1.05;;;19.80;47.30;;;;;;5095836;28;20199;-83
2023/05/28 11:38:08;;;;;;;1.80;1.40;;;19.80;47.20;;;;;;5099572;28;20537;-82
2023/05/28 11:40:34;;;;;;;1.20;1.10;;;19.80;47.20;;;;;;5118769;28;20172;-83
2023/05/28 11:43:00;;;;;;;1.60;1.33;;;19.80;47.00;;;;;;5118397;28;20163;-82
2023/05/28 11:45:26;;;;;;;1.38;1.23;;;19.80;47.00;;;;;;5116928;28;20251;-82
2023/05/28 11:47:52;;;;;;;1.35;1.17;;;19.80;46.90;;;;;;5116576;28;20163;-83
2023/05/28 11:50:18;;;;;;;2.75;1.33;;;19.80;46.80;;;;;;5116919;28;20160;-82
2023/05/28 11:52:44;;;;;;;1.40;1.27;;;19.80;46.90;;;;;;5116884;28;20542;-83
2023/05/28 11:55:10;;;;;;;1.73;1.52;;;19.90;46.80;;;;;;5117734;28;20148;-84
2023/05/28 11:57:38;;;;;;;1.50;1.40;;;19.90;46.70;;;;;;5134396;27;20167;-83
2023/05/28 12:00:10;;;;;;;1.33;1.23;;;19.90;46.70;;;;;;5133367;27;20179;-83
2023/05/28 12:02:43;;;;;;;1.23;1.13;;;19.90;46.70;;;;;;5116151;28;20164;-83
2023/05/28 12:05:09;;;;;;;1.70;1.40;;;19.90;46.60;;;;;;5099834;28;20167;-83
2023/05/28 12:07:35;;;;;;;2.70;1.50;;;19.90;46.70;;;;;;5117036;28;20205;-83
2023/05/28 12:10:09;;;;;;;1.38;1.27;;;19.80;46.70;;;;;;5117556;28;20167;-83
2023/05/28 12:12:41;;;;;;;1.92;1.38;;;19.80;46.70;;;;;;5118143;28;20283;-83
2023/05/28 12:15:07;;;;;;;3.45;1.30;;;19.80;46.80;;;;;;5133880;27;20164;-83
2023/05/28 12:17:36;;;;;;;1.70;1.40;;;19.80;46.80;;;;;;5117519;28;20717;-82
2023/05/28 12:20:25;;;;;;;1.40;1.20;;;19.80;46.60;;;;;;5117165;28;20148;-82
2023/05/28 12:23:08;;;;;;;2.92;1.40;;;19.80;46.40;;;;;;5115793;28;20590;-81
2023/05/28 12:25:48;;;;;;;1.67;1.30;;;19.80;46.20;;;;;;5132680;27;20686;-82
2023/05/28 12:28:15;;;;;;;1.60;1.40;;;19.90;46.40;;;;;;5104038;28;20245;-82
2023/05/28 12:30:42;;;;;;;2.75;1.20;;;19.90;46.30;;;;;;5094436;28;20149;-81
2023/05/28 12:33:10;;;;;;;1.42;1.33;;;19.90;46.30;;;;;;5078806;28;20237;-83
2023/05/28 12:35:37;;;;;;;2.53;1.58;;;19.90;46.30;;;;;;5082571;28;20690;-86
2023/05/28 12:38:03;;;;;;;2.30;1.67;;;19.90;46.00;;;;;;5081941;28;20179;-86
2023/05/28 12:40:30;;;;;;;2.03;1.35;;;19.90;45.90;;;;;;5084533;28;20164;-85
2023/05/28 12:42:59;;;;;;;2.90;1.40;;;19.90;45.90;;;;;;5098619;28;20180;-85
2023/05/28 12:45:25;;;;;;;2.42;1.40;;;19.90;45.70;;;;;;5079301;28;20234;-82